Time;durP1;ratioP1;P1;durP2;ratioP2;P2;SDS_P1;SDS_P2;PMS_P1;PMS_P2;Temp;Humidity;BMP_temperature;BMP_pressure;BME280_temperature;BME280_humidity;BME280_pressure;Samples;Min_cycle;Max_cycle;Signal;HPM_P1;HPM_P2
2021/06/27 00:01:15;;;;;;;8.80;6.50;;;;;;;15.32;77.16;101292.69;5095919;28;20284;-70
2021/06/27 00:03:41;;;;;;;8.83;6.70;;;;;;;15.17;77.43;101302.59;5079098;28;20170;-70
2021/06/27 00:06:07;;;;;;;10.37;7.00;;;;;;;15.10;77.67;101303.09;5113995;28;20196;-71
2021/06/27 00:08:33;;;;;;;7.80;6.33;;;;;;;15.09;78.10;101299.56;5113612;28;20222;-70
2021/06/27 00:10:59;;;;;;;8.53;7.03;;;;;;;15.09;78.35;101298.69;5078128;28;20209;-70
2021/06/27 00:13:28;;;;;;;8.30;6.83;;;;;;;15.14;78.13;101300.13;5095865;28;20249;-70
2021/06/27 00:15:54;;;;;;;8.77;7.33;;;;;;;15.22;78.74;101305.84;5113560;28;20169;-70
2021/06/27 00:18:23;;;;;;;10.00;7.13;;;;;;;15.29;79.44;101304.53;5078736;28;20638;-70
2021/06/27 00:20:50;;;;;;;8.30;6.53;;;;;;;15.36;79.22;101310.34;5078557;28;20209;-71
2021/06/27 00:23:17;;;;;;;11.63;6.20;;;;;;;15.44;82.39;101309.84;5096054;28;20174;-70
2021/06/27 00:25:43;;;;;;;11.47;6.90;;;;;;;15.51;81.52;101303.09;5095720;28;20162;-71
2021/06/27 00:28:09;;;;;;;8.83;6.80;;;;;;;15.48;80.45;101297.91;5079425;28;20298;-70
2021/06/27 00:30:36;;;;;;;8.40;6.53;;;;;;;15.40;81.59;101303.81;5113664;28;20629;-70
2021/06/27 00:33:02;;;;;;;7.30;6.43;;;;;;;15.36;81.81;101296.91;5095498;28;20177;-71
2021/06/27 00:35:28;;;;;;;6.60;5.90;;;;;;;15.37;82.12;101300.47;5095714;28;20199;-70
2021/06/27 00:37:54;;;;;;;7.80;5.50;;;;;;;15.36;83.33;101301.41;5078599;28;20238;-70
2021/06/27 00:40:23;;;;;;;5.87;4.90;;;;;;;15.39;84.10;101301.22;5095550;28;20194;-71
2021/06/27 00:42:49;;;;;;;5.10;4.57;;;;;;;15.44;83.81;101304.47;5095752;28;20177;-71
2021/06/27 00:45:15;;;;;;;4.90;4.30;;;;;;;15.45;83.49;101290.91;5095366;28;20532;-71
2021/06/27 00:47:42;;;;;;;6.00;5.40;;;;;;;15.41;82.99;101300.16;5078543;28;20283;-70
2021/06/27 00:50:19;;;;;;;6.17;5.17;;;;;;;15.43;83.39;101303.59;5095342;28;20166;-71
2021/06/27 00:52:45;;;;;;;6.13;4.73;;;;;;;15.48;84.43;101303.28;5113596;28;20157;-71
2021/06/27 00:55:11;;;;;;;5.57;5.00;;;;;;;15.52;84.18;101299.44;5113459;28;20537;-71
2021/06/27 00:57:38;;;;;;;7.27;4.80;;;;;;;15.51;84.59;101300.41;5113508;28;20181;-70
2021/06/27 01:00:06;;;;;;;6.83;4.60;;;;;;;15.47;85.35;101304.25;5095167;28;20280;-71
2021/06/27 01:02:31;;;;;;;8.33;4.87;;;;;;;15.42;85.57;101296.50;5095181;28;20177;-71
2021/06/27 01:04:57;;;;;;;5.50;4.60;;;;;;;15.36;85.29;101291.53;5113470;28;20180;-71
2021/06/27 01:07:22;;;;;;;5.67;5.00;;;;;;;15.25;85.34;101294.06;5113936;28;20176;-71
2021/06/27 01:09:47;;;;;;;6.63;5.60;;;;;;;15.09;85.60;101288.81;5112329;28;20185;-72
2021/06/27 01:12:13;;;;;;;7.53;5.63;;;;;;;14.97;86.56;101293.16;5113220;28;20216;-71
2021/06/27 01:14:39;;;;;;;6.97;6.27;;;;;;;14.91;88.54;101296.22;5095318;28;20177;-71
2021/06/27 01:17:04;;;;;;;7.27;5.57;;;;;;;14.89;89.04;101291.91;5113337;28;20295;-71
2021/06/27 01:19:31;;;;;;;8.30;6.07;;;;;;;15.01;90.13;101285.75;5095213;28;20194;-71
2021/06/27 01:21:57;;;;;;;7.20;6.13;;;;;;;15.13;90.10;101290.31;5095648;28;20182;-72
2021/06/27 01:24:22;;;;;;;5.80;5.20;;;;;;;15.18;90.25;101285.50;5097312;28;20174;-71
2021/06/27 01:26:48;;;;;;;7.23;6.30;;;;;;;15.21;90.61;101279.06;5113338;28;20166;-71
2021/06/27 01:29:13;;;;;;;8.67;5.93;;;;;;;15.20;90.67;101270.13;5098532;28;20189;-72
2021/06/27 01:31:38;;;;;;;9.27;5.73;;;;;;;15.19;91.33;101271.09;5117034;28;20298;-72
2021/06/27 01:34:04;;;;;;;6.10;5.50;;;;;;;15.12;91.49;101272.47;5081829;28;20202;-71
2021/06/27 01:36:29;;;;;;;8.53;6.53;;;;;;;15.10;92.46;101282.47;5117482;28;20537;-72
2021/06/27 01:38:54;;;;;;;7.27;6.13;;;;;;;15.11;92.69;101278.81;5081856;28;20197;-71
2021/06/27 01:41:20;;;;;;;7.90;6.50;;;;;;;15.12;92.12;101279.66;5098977;28;20193;-72
2021/06/27 01:43:45;;;;;;;6.70;6.00;;;;;;;15.13;91.66;101279.56;5098389;28;20185;-70
2021/06/27 01:46:10;;;;;;;9.23;6.70;;;;;;;15.10;91.88;101285.16;5098599;28;20169;-71
2021/06/27 01:48:36;;;;;;;9.40;7.30;;;;;;;15.10;91.97;101287.84;5098952;28;20174;-71
2021/06/27 01:51:04;;;;;;;9.87;7.97;;;;;;;15.06;89.74;101278.25;5098572;28;20192;-71
2021/06/27 01:53:32;;;;;;;12.83;10.47;;;;;;;14.96;87.44;101272.59;5098260;28;20193;-71
2021/06/27 01:56:07;;;;;;;11.27;9.10;;;;;;;14.97;84.03;101262.72;5116252;28;20170;-71
2021/06/27 01:59:03;;;;;;;10.77;8.93;;;;;;;15.00;82.76;101262.53;5116423;28;20153;-71
2021/06/27 02:01:31;;;;;;;13.17;9.90;;;;;;;14.99;82.13;101255.41;5094776;28;20206;-71
2021/06/27 02:03:56;;;;;;;13.43;9.57;;;;;;;15.04;81.36;101253.28;5116053;28;20637;-71
2021/06/27 02:06:23;;;;;;;10.10;9.00;;;;;;;15.04;81.18;101258.66;5098360;28;20187;-71
2021/06/27 02:08:49;;;;;;;13.07;9.57;;;;;;;15.02;81.27;101261.44;5080877;28;20169;-71
2021/06/27 02:11:17;;;;;;;12.67;9.10;;;;;;;14.96;81.37;101250.25;5080644;28;20681;-71
2021/06/27 02:13:43;;;;;;;11.00;9.13;;;;;;;14.86;81.81;101260.69;5098013;28;20558;-71
2021/06/27 02:16:09;;;;;;;10.93;8.60;;;;;;;14.83;82.12;101260.03;5080737;28;20536;-71
2021/06/27 02:18:45;;;;;;;14.27;9.80;;;;;;;14.80;82.55;101265.59;5097874;28;20291;-71
2021/06/27 02:21:15;;;;;;;10.40;8.70;;;;;;;14.75;83.06;101254.28;5115714;28;20193;-71
2021/06/27 02:23:41;;;;;;;11.87;9.17;;;;;;;14.73;83.79;101253.53;5115871;28;20642;-71
2021/06/27 02:26:09;;;;;;;14.27;10.10;;;;;;;14.69;83.73;101248.34;5097942;28;20530;-71
2021/06/27 02:28:34;;;;;;;13.20;9.70;;;;;;;14.70;84.84;101249.22;5098282;28;20170;-71
2021/06/27 02:31:01;;;;;;;12.60;9.97;;;;;;;14.67;84.61;101252.97;5091657;28;20198;-72
2021/06/27 02:33:27;;;;;;;14.63;9.77;;;;;;;14.64;84.24;101249.59;5112746;28;20181;-71
2021/06/27 02:35:53;;;;;;;16.43;12.30;;;;;;;14.55;84.33;101251.06;5098251;28;20667;-71
2021/06/27 02:38:18;;;;;;;14.67;11.53;;;;;;;14.56;84.08;101244.72;5097130;28;20260;-72
2021/06/27 02:40:44;;;;;;;12.77;10.07;;;;;;;14.54;83.74;101248.47;5097363;28;20201;-71
2021/06/27 02:43:10;;;;;;;15.57;11.83;;;;;;;14.45;83.76;101243.66;5097292;28;20166;-71
2021/06/27 02:45:36;;;;;;;13.10;9.97;;;;;;;14.40;83.51;101244.78;5115422;28;20173;-71
2021/06/27 02:48:01;;;;;;;11.67;10.07;;;;;;;14.31;83.97;101242.66;5097145;28;20172;-71
2021/06/27 02:50:26;;;;;;;12.77;10.23;;;;;;;14.20;84.70;101241.59;5097633;28;20189;-71
2021/06/27 02:52:52;;;;;;;12.83;10.00;;;;;;;14.15;84.96;101243.72;5115242;28;20689;-71
2021/06/27 02:55:17;;;;;;;11.50;9.87;;;;;;;14.06;85.68;101250.47;5096844;28;20224;-71
2021/06/27 02:57:43;;;;;;;15.70;10.50;;;;;;;14.02;85.71;101246.25;5115133;28;20311;-71
2021/06/27 03:00:14;;;;;;;16.70;10.30;;;;;;;13.95;86.42;101244.91;5079548;28;20193;-71
2021/06/27 03:02:39;;;;;;;20.40;11.63;;;;;;;13.82;87.27;101242.13;5114887;28;20653;-71
2021/06/27 03:05:06;;;;;;;16.57;11.67;;;;;;;13.76;87.93;101247.84;5096765;28;20227;-71
2021/06/27 03:07:31;;;;;;;17.53;12.17;;;;;;;13.70;88.53;101249.06;5096638;28;20173;-72
2021/06/27 03:09:56;;;;;;;16.83;11.90;;;;;;;13.68;88.65;101242.06;5114971;28;20705;-72
2021/06/27 03:12:21;;;;;;;17.03;12.60;;;;;;;13.66;88.98;101241.28;5096428;28;20300;-71
2021/06/27 03:14:47;;;;;;;17.93;12.83;;;;;;;13.65;89.21;101231.50;5114798;28;20169;-71
2021/06/27 03:17:12;;;;;;;18.57;13.37;;;;;;;13.64;89.56;101229.78;5096728;28;20178;-71
2021/06/27 03:19:37;;;;;;;20.27;12.83;;;;;;;13.66;89.40;101236.78;5096923;28;20330;-71
2021/06/27 03:22:03;;;;;;;22.97;13.20;;;;;;;13.70;89.04;101226.72;5114886;28;20653;-71
2021/06/27 03:24:28;;;;;;;21.07;12.87;;;;;;;13.68;89.42;101225.97;5114381;28;20184;-71
2021/06/27 03:26:53;;;;;;;19.33;13.03;;;;;;;13.69;89.55;101227.69;5114704;28;20272;-71
2021/06/27 03:29:19;;;;;;;16.83;13.63;;;;;;;13.73;89.38;101226.53;5114440;28;20216;-72
2021/06/27 03:31:44;;;;;;;21.33;12.80;;;;;;;13.78;89.11;101235.22;5096250;28;20280;-72
2021/06/27 03:34:09;;;;;;;17.63;13.17;;;;;;;13.81;88.99;101240.38;5114624;28;20260;-71
2021/06/27 03:36:35;;;;;;;18.73;13.70;;;;;;;13.87;89.22;101237.31;5114671;28;20173;-71
2021/06/27 03:39:05;;;;;;;18.93;13.57;;;;;;;13.93;88.89;101228.91;5096193;28;20248;-71
2021/06/27 03:41:36;;;;;;;22.93;15.40;;;;;;;14.03;88.79;101231.88;5095955;28;20216;-71
2021/06/27 03:44:02;;;;;;;18.60;14.73;;;;;;;14.10;88.48;101233.22;5096946;28;20241;-71
2021/06/27 03:46:27;;;;;;;19.37;14.23;;;;;;;14.17;88.40;101239.97;5096439;28;20208;-72
2021/06/27 03:48:53;;;;;;;23.57;14.70;;;;;;;14.19;88.06;101223.78;5096784;28;20617;-71
2021/06/27 03:51:18;;;;;;;20.10;13.63;;;;;;;14.28;87.78;101231.25;5113716;28;20194;-71
2021/06/27 03:53:44;;;;;;;16.57;14.13;;;;;;;14.38;87.27;101232.41;5114121;28;20286;-71
2021/06/27 03:56:09;;;;;;;20.30;13.87;;;;;;;14.46;86.71;101235.50;5114163;28;20170;-71
2021/06/27 03:58:35;;;;;;;15.23;12.00;;;;;;;14.54;86.04;101235.91;5113919;28;20261;-71
2021/06/27 04:01:00;;;;;;;17.93;12.77;;;;;;;14.60;85.28;101231.97;5078776;28;20214;-71
2021/06/27 04:03:25;;;;;;;17.80;12.70;;;;;;;14.65;85.38;101228.00;5114240;28;20239;-71
2021/06/27 04:05:50;;;;;;;18.40;12.97;;;;;;;14.72;84.76;101227.63;5095328;28;20187;-71
2021/06/27 04:08:16;;;;;;;18.80;13.70;;;;;;;14.77;84.08;101222.81;5095470;28;20232;-71
2021/06/27 04:10:41;;;;;;;15.43;12.23;;;;;;;14.79;83.77;101229.81;5136960;22;20213;-67
2021/06/27 04:13:06;;;;;;;15.80;12.33;;;;;;;14.86;82.40;101235.66;5114466;28;20671;-67
2021/06/27 04:15:32;;;;;;;16.23;11.90;;;;;;;14.84;82.96;101232.19;5096145;28;20177;-67
2021/06/27 04:17:58;;;;;;;16.80;12.10;;;;;;;14.85;82.96;101229.41;5095892;28;20240;-67
2021/06/27 04:20:23;;;;;;;17.10;10.33;;;;;;;14.84;82.01;101229.50;5096089;28;20244;-67
2021/06/27 04:22:48;;;;;;;11.43;9.37;;;;;;;14.84;81.69;101232.19;5095987;28;20707;-67
2021/06/27 04:25:14;;;;;;;10.20;9.10;;;;;;;14.82;81.88;101232.28;5113776;28;20165;-66
2021/06/27 04:27:39;;;;;;;11.20;9.23;;;;;;;14.84;81.70;101237.56;5113802;28;20173;-67
2021/06/27 04:30:06;;;;;;;13.47;9.60;;;;;;;14.70;82.54;101233.97;5114150;28;20169;-68
2021/06/27 04:32:31;;;;;;;14.23;9.27;;;;;;;14.70;83.00;101241.16;5095585;28;20197;-68
2021/06/27 04:34:57;;;;;;;12.67;9.20;;;;;;;14.73;83.37;101234.72;5113643;28;20180;-67
2021/06/27 04:37:22;;;;;;;13.87;10.57;;;;;;;14.75;83.49;101239.03;5113595;28;20248;-67
2021/06/27 04:39:47;;;;;;;13.50;10.00;;;;;;;14.88;83.24;101242.69;5113694;28;20190;-68
2021/06/27 04:42:13;;;;;;;16.07;11.10;;;;;;;14.94;83.38;101238.72;5095422;28;20654;-68
2021/06/27 04:44:38;;;;;;;18.13;11.33;;;;;;;14.95;83.16;101230.56;5113612;28;20173;-68
2021/06/27 04:47:04;;;;;;;14.40;10.43;;;;;;;15.08;83.11;101227.06;5095646;28;20204;-68
2021/06/27 04:49:29;;;;;;;17.00;11.13;;;;;;;15.16;82.96;101224.72;5116358;28;20231;-68
2021/06/27 04:51:54;;;;;;;14.30;11.13;;;;;;;15.24;83.10;101228.66;5113826;28;20208;-68
2021/06/27 04:54:19;;;;;;;19.90;13.40;;;;;;;15.28;83.08;101234.69;5095504;28;20170;-68
2021/06/27 04:56:45;;;;;;;16.57;12.00;;;;;;;15.38;82.62;101226.88;5095593;28;20222;-68
2021/06/27 04:59:10;;;;;;;22.10;14.50;;;;;;;15.43;82.72;101227.44;5113986;28;20197;-68
2021/06/27 05:01:35;;;;;;;17.33;12.17;;;;;;;15.57;82.63;101238.13;5113709;28;20685;-68
2021/06/27 05:04:01;;;;;;;25.93;18.43;;;;;;;15.73;82.88;101241.53;5117552;28;20212;-68
2021/06/27 05:06:26;;;;;;;25.40;17.37;;;;;;;15.94;82.37;101242.75;5117532;28;20216;-68
2021/06/27 05:08:51;;;;;;;21.07;15.77;;;;;;;16.14;81.15;101248.59;5099648;28;20181;-68
2021/06/27 05:11:17;;;;;;;22.57;14.67;;;;;;;16.43;79.42;101249.25;5098992;28;20239;-68
2021/06/27 05:13:42;;;;;;;25.87;16.53;;;;;;;16.73;78.37;101240.84;5117557;28;20158;-68
2021/06/27 05:16:07;;;;;;;21.57;15.70;;;;;;;16.92;78.69;101241.22;5117570;28;20180;-68
2021/06/27 05:18:33;;;;;;;27.63;20.17;;;;;;;16.92;79.38;101243.94;5099824;28;20173;-67
2021/06/27 05:20:58;;;;;;;28.50;19.70;;;;;;;17.17;79.03;101246.56;5098819;28;20201;-67
2021/06/27 05:23:23;;;;;;;28.33;20.43;;;;;;;17.39;78.52;101245.81;5118313;28;20237;-67
2021/06/27 05:25:49;;;;;;;25.20;18.67;;;;;;;17.57;78.14;101240.00;5118880;28;20165;-67
2021/06/27 05:28:14;;;;;;;23.83;17.93;;;;;;;17.61;77.45;101245.06;5117561;28;20172;-68
2021/06/27 05:30:39;;;;;;;25.93;18.73;;;;;;;17.71;77.94;101247.94;5117092;28;20205;-68
2021/06/27 05:33:05;;;;;;;27.40;19.63;;;;;;;17.91;76.88;101247.28;5099055;28;20165;-68
2021/06/27 05:35:30;;;;;;;27.20;18.80;;;;;;;17.98;77.07;101247.69;5098715;28;20207;-68
2021/06/27 05:37:55;;;;;;;28.63;18.73;;;;;;;18.04;77.14;101244.50;5099135;28;20166;-68
2021/06/27 05:40:21;;;;;;;24.53;18.00;;;;;;;18.26;76.73;101249.09;5117044;28;20189;-68
2021/06/27 05:42:47;;;;;;;22.17;16.37;;;;;;;18.30;76.70;101248.72;5116746;28;20326;-68
2021/06/27 05:45:13;;;;;;;20.40;14.13;;;;;;;18.54;76.43;101250.44;5116835;28;20166;-68
2021/06/27 05:47:38;;;;;;;18.20;13.97;;;;;;;18.33;76.82;101259.28;5099104;28;20180;-68
2021/06/27 05:50:04;;;;;;;15.23;11.20;;;;;;;18.37;77.89;101262.63;5098405;28;20257;-68
2021/06/27 05:52:29;;;;;;;14.80;11.17;;;;;;;18.65;76.48;101258.63;5098481;28;20245;-67
2021/06/27 05:54:55;;;;;;;18.00;13.60;;;;;;;18.96;74.50;101254.31;5116444;28;20169;-68
2021/06/27 05:57:22;;;;;;;20.00;14.53;;;;;;;19.12;73.47;101254.75;5116495;28;20193;-67
2021/06/27 05:59:48;;;;;;;19.43;13.90;;;;;;;19.24;73.31;101259.16;5116551;28;20197;-68
2021/06/27 06:02:13;;;;;;;17.47;14.63;;;;;;;19.31;73.13;101244.13;5098329;28;20215;-69
2021/06/27 06:04:38;;;;;;;18.10;13.23;;;;;;;19.28;72.90;101254.34;5098682;28;20174;-68
2021/06/27 06:07:04;;;;;;;17.63;14.83;;;;;;;19.13;73.67;101251.06;5097988;28;20174;-68
2021/06/27 06:09:29;;;;;;;18.83;12.83;;;;;;;19.21;73.58;101254.00;5098120;28;20169;-68
2021/06/27 06:11:54;;;;;;;19.97;15.40;;;;;;;19.00;74.66;101253.94;5116084;28;20243;-68
2021/06/27 06:14:19;;;;;;;14.87;11.30;;;;;;;19.23;74.29;101251.16;5115852;28;20653;-68
2021/06/27 06:16:45;;;;;;;12.87;10.60;;;;;;;19.45;73.33;101252.97;5098270;28;20226;-68
2021/06/27 06:19:11;;;;;;;15.67;12.23;;;;;;;19.57;71.59;101255.53;5116200;28;20198;-68
2021/06/27 06:21:36;;;;;;;16.33;11.10;;;;;;;19.67;71.71;101256.47;5097858;28;20280;-67
2021/06/27 06:24:02;;;;;;;12.57;10.03;;;;;;;19.61;71.53;101262.41;5097811;28;20177;-67
2021/06/27 06:26:27;;;;;;;13.33;10.40;;;;;;;19.75;70.31;101260.41;5098000;28;20181;-67
2021/06/27 06:28:52;;;;;;;12.63;10.60;;;;;;;19.58;67.58;101253.66;5116472;28;20177;-67
2021/06/27 06:31:18;;;;;;;17.63;11.07;;;;;;;19.77;69.49;101251.16;5097697;28;20201;-68
2021/06/27 06:33:43;;;;;;;14.07;11.03;;;;;;;19.85;69.37;101258.63;5097779;28;20641;-67
2021/06/27 06:36:08;;;;;;;15.17;11.67;;;;;;;20.03;68.31;101251.59;5097555;28;20200;-67
2021/06/27 06:38:33;;;;;;;13.70;10.40;;;;;;;19.95;68.95;101265.81;5097661;28;20223;-67
2021/06/27 06:40:59;;;;;;;18.43;11.97;;;;;;;19.91;69.05;101261.66;5080243;28;20254;-67
2021/06/27 06:43:24;;;;;;;11.13;9.03;;;;;;;19.91;67.07;101255.38;5115584;28;20223;-68
2021/06/27 06:45:49;;;;;;;11.03;8.70;;;;;;;19.86;66.66;101265.75;5097661;28;20286;-68
2021/06/27 06:48:15;;;;;;;12.23;9.20;;;;;;;19.84;66.94;101263.16;5097733;28;20176;-69
2021/06/27 06:50:40;;;;;;;13.03;10.23;;;;;;;19.78;66.22;101262.84;5097740;28;20178;-68
2021/06/27 06:53:05;;;;;;;11.20;9.90;;;;;;;19.82;67.56;101258.88;5115367;28;20165;-68
2021/06/27 06:55:31;;;;;;;13.37;10.27;;;;;;;19.87;66.46;101262.06;5116094;28;20194;-69
2021/06/27 06:57:56;;;;;;;11.87;9.57;;;;;;;19.86;66.76;101250.34;5080835;28;20174;-68
2021/06/27 07:00:22;;;;;;;12.63;9.47;;;;;;;19.84;66.07;101263.16;5097328;28;20634;-68
2021/06/27 07:02:48;;;;;;;14.00;8.93;;;;;;;19.94;65.07;101261.38;5115698;28;20185;-68
2021/06/27 07:05:13;;;;;;;12.10;8.63;;;;;;;19.92;66.75;101257.94;5097544;28;20188;-68
2021/06/27 07:07:40;;;;;;;12.47;9.63;;;;;;;20.07;66.28;101263.94;5115311;28;20564;-68
2021/06/27 07:10:06;;;;;;;12.53;9.63;;;;;;;20.16;64.95;101260.41;5097406;28;20717;-69
2021/06/27 07:12:31;;;;;;;9.67;8.17;;;;;;;20.22;64.13;101261.72;5096793;28;20213;-68
2021/06/27 07:14:57;;;;;;;9.87;8.63;;;;;;;20.45;64.09;101262.47;5080208;28;20178;-68
2021/06/27 07:17:22;;;;;;;9.80;7.63;;;;;;;20.58;63.18;101255.84;5097816;28;20173;-69
2021/06/27 07:19:47;;;;;;;10.13;8.73;;;;;;;20.69;62.42;101254.88;5114911;28;20633;-68
2021/06/27 07:22:12;;;;;;;10.60;7.80;;;;;;;20.54;62.83;101253.53;5096671;28;20197;-68
2021/06/27 07:24:38;;;;;;;13.47;8.10;;;;;;;20.65;61.58;101258.00;5096449;28;20204;-67
2021/06/27 07:27:05;;;;;;;10.93;8.67;;;;;;;20.43;62.91;101253.59;5095665;28;20590;-68
2021/06/27 07:29:30;;;;;;;9.47;7.87;;;;;;;20.33;63.31;101253.53;5096427;28;20201;-68
2021/06/27 07:31:55;;;;;;;10.33;8.23;;;;;;;20.32;64.00;101242.81;5114610;28;20268;-67
2021/06/27 07:34:21;;;;;;;8.97;7.40;;;;;;;20.33;64.31;101248.09;5096367;28;20641;-68
2021/06/27 07:36:46;;;;;;;13.97;8.27;;;;;;;20.64;62.26;101257.16;5114742;28;20652;-67
2021/06/27 07:39:11;;;;;;;11.03;8.13;;;;;;;20.73;62.44;101255.47;5114455;28;20204;-68
2021/06/27 07:41:37;;;;;;;10.50;7.43;;;;;;;20.83;62.35;101262.66;5096300;28;20197;-68
2021/06/27 07:44:02;;;;;;;12.13;6.93;;;;;;;21.02;61.45;101250.16;5079473;28;20181;-68
2021/06/27 07:46:27;;;;;;;8.27;6.67;;;;;;;20.94;60.32;101253.56;5096247;28;20166;-68
2021/06/27 07:48:53;;;;;;;7.40;6.27;;;;;;;20.96;58.86;101246.13;5114446;28;20277;-68
2021/06/27 07:51:18;;;;;;;8.57;6.03;;;;;;;21.07;60.19;101246.00;5114330;28;20189;-68
2021/06/27 07:53:43;;;;;;;8.80;6.87;;;;;;;21.20;60.08;101245.78;5096239;28;20577;-68
2021/06/27 07:56:09;;;;;;;10.93;7.23;;;;;;;20.93;61.51;101243.69;5114260;28;20173;-68
2021/06/27 07:58:34;;;;;;;9.33;5.67;;;;;;;21.14;60.72;101243.59;5114090;28;20169;-68
2021/06/27 08:00:59;;;;;;;9.17;5.80;;;;;;;21.12;59.01;101248.31;5114122;28;20207;-68
2021/06/27 08:03:25;;;;;;;11.00;6.50;;;;;;;20.95;59.75;101243.56;5114555;28;20533;-68
2021/06/27 08:05:50;;;;;;;9.00;5.50;;;;;;;21.37;57.88;101252.41;5095821;28;20644;-68
2021/06/27 08:08:15;;;;;;;10.33;5.80;;;;;;;21.50;56.99;101237.53;5114543;28;20174;-68
2021/06/27 08:10:42;;;;;;;5.50;5.00;;;;;;;21.53;56.44;101236.41;5113972;28;20223;-69
2021/06/27 08:13:07;;;;;;;7.30;5.27;;;;;;;21.55;56.30;101237.13;5095877;28;20176;-68
2021/06/27 08:15:32;;;;;;;6.67;5.50;;;;;;;21.47;56.49;101237.81;5114248;28;20169;-69
2021/06/27 08:17:57;;;;;;;7.50;5.23;;;;;;;21.58;57.95;101245.00;5114189;28;20599;-68
2021/06/27 08:20:23;;;;;;;6.23;5.17;;;;;;;21.85;55.42;101242.41;5113913;28;20197;-68
2021/06/27 08:22:49;;;;;;;9.60;5.43;;;;;;;21.80;56.58;101246.56;5113805;28;20665;-68
2021/06/27 08:25:15;;;;;;;6.13;4.80;;;;;;;21.93;56.43;101241.72;5095695;28;20172;-68
2021/06/27 08:27:40;;;;;;;6.50;5.00;;;;;;;21.83;56.01;101249.00;5078649;28;20617;-69
2021/06/27 08:30:09;;;;;;;6.10;4.73;;;;;;;21.98;54.35;101244.00;5113780;28;20174;-68
2021/06/27 08:32:35;;;;;;;6.17;4.63;;;;;;;21.71;56.43;101242.00;5114391;28;20291;-68
2021/06/27 08:35:00;;;;;;;6.10;4.80;;;;;;;22.19;54.82;101249.25;5097917;28;20211;-68
2021/06/27 08:37:25;;;;;;;6.37;4.17;;;;;;;22.63;52.25;101244.97;5116185;28;20538;-67
2021/06/27 08:39:51;;;;;;;4.80;4.30;;;;;;;22.80;50.61;101246.94;5096562;28;20198;-68
2021/06/27 08:42:20;;;;;;;5.00;3.70;;;;;;;22.75;50.57;101249.25;5095608;28;20190;-68
2021/06/27 08:44:46;;;;;;;8.50;4.30;;;;;;;22.87;51.55;101236.31;5096058;28;20542;-68
2021/06/27 08:47:15;;;;;;;5.83;3.77;;;;;;;22.99;51.02;101235.97;5079096;28;20174;-68
2021/06/27 08:49:44;;;;;;;6.17;5.30;;;;;;;22.87;52.33;101231.75;5095730;28;20238;-69
2021/06/27 08:52:15;;;;;;;6.73;4.43;;;;;;;22.83;52.34;101240.34;5095446;28;20266;-68
2021/06/27 08:54:40;;;;;;;7.23;3.87;;;;;;;22.89;51.01;101237.88;5096047;28;20626;-68
2021/06/27 08:57:05;;;;;;;6.33;4.20;;;;;;;22.63;50.89;101240.41;5095432;28;20248;-70
2021/06/27 08:59:31;;;;;;;5.00;4.43;;;;;;;22.89;50.85;101239.75;5113754;28;20581;-69
2021/06/27 09:02:00;;;;;;;4.87;4.13;;;;;;;22.90;51.36;101236.03;5095340;28;20722;-69
2021/06/27 09:04:26;;;;;;;5.47;4.67;;;;;;;21.78;53.42;101230.41;5095377;28;20173;-68
2021/06/27 09:06:51;;;;;;;8.00;4.70;;;;;;;21.74;54.05;101231.69;5095427;28;20213;-68
2021/06/27 09:09:21;;;;;;;5.57;4.63;;;;;;;21.83;53.24;101238.13;5112345;28;20222;-69
2021/06/27 09:12:00;;;;;;;4.87;3.43;;;;;;;21.66;52.37;101239.72;5095377;28;20202;-68
2021/06/27 09:14:32;;;;;;;7.07;3.73;;;;;;;22.14;51.53;101242.41;5095643;28;20574;-70
2021/06/27 09:17:06;;;;;;;5.53;3.93;;;;;;;22.64;50.38;101235.81;5080935;28;20157;-69
2021/06/27 09:19:31;;;;;;;3.73;3.33;;;;;;;22.92;49.00;101234.88;5097667;28;20189;-70
2021/06/27 09:22:10;;;;;;;5.87;3.30;;;;;;;23.51;48.22;101228.03;5096222;28;20557;-69
2021/06/27 09:24:35;;;;;;;3.80;3.17;;;;;;;23.62;46.49;101240.59;5095473;28;20165;-69
2021/06/27 09:27:15;;;;;;;3.17;2.73;;;;;;;24.08;44.98;101233.16;5113317;28;20179;-69
2021/06/27 09:29:40;;;;;;;3.97;2.87;;;;;;;24.05;45.52;101239.78;5113786;28;20240;-69
2021/06/27 09:32:14;;;;;;;6.47;3.70;;;;;;;24.24;46.10;101241.47;5113403;28;20219;-69
2021/06/27 09:34:43;;;;;;;7.43;5.00;;;;;;;24.25;46.60;101235.00;5095403;28;20189;-69
2021/06/27 09:37:08;;;;;;;8.67;4.60;;;;;;;24.19;47.47;101232.91;5095074;28;20252;-69
2021/06/27 09:39:34;;;;;;;5.00;4.27;;;;;;;24.11;47.60;101230.09;5095074;28;20288;-68
2021/06/27 09:42:03;;;;;;;6.10;3.67;;;;;;;23.74;47.07;101235.75;5094914;28;20193;-68
2021/06/27 09:44:29;;;;;;;4.77;3.70;;;;;;;23.53;48.26;101223.28;5113224;28;20173;-69
2021/06/27 09:46:55;;;;;;;7.67;5.77;;;;;;;23.29;50.77;101221.16;5094921;28;20181;-68
2021/06/27 09:49:31;;;;;;;8.33;6.20;;;;;;;22.71;53.93;101224.22;5114893;28;20594;-68
2021/06/27 09:51:58;;;;;;;7.30;5.53;;;;;;;23.31;52.18;101219.16;5099266;28;20185;-68
2021/06/27 09:54:26;;;;;;;8.13;7.10;;;;;;;23.31;51.67;101224.59;5098678;28;20173;-68
2021/06/27 09:56:52;;;;;;;8.73;5.90;;;;;;;22.64;53.60;101225.78;5081821;28;20173;-69
2021/06/27 09:59:19;;;;;;;5.87;4.83;;;;;;;22.85;53.67;101219.28;5099055;28;20200;-69
2021/06/27 10:01:44;;;;;;;6.40;4.93;;;;;;;23.42;50.60;101217.22;5098414;28;20193;-69
2021/06/27 10:04:13;;;;;;;6.80;4.90;;;;;;;23.46;50.01;101211.31;5098543;28;20170;-68
2021/06/27 10:06:50;;;;;;;3.00;2.70;;;;;;;24.23;46.11;101209.75;5081874;28;20174;-69
2021/06/27 10:09:19;;;;;;;6.50;4.43;;;;;;;24.41;46.83;101210.56;5098466;28;20165;-70
2021/06/27 10:12:07;;;;;;;6.67;4.50;;;;;;;24.49;47.00;101215.19;5114549;22;20230;-73
2021/06/27 10:14:35;;;;;;;6.27;4.27;;;;;;;23.87;48.99;101207.09;5061132;28;20182;-74
2021/06/27 10:17:04;;;;;;;8.77;4.97;;;;;;;24.76;46.29;101197.78;5077811;28;20223;-73
2021/06/27 10:19:30;;;;;;;4.27;3.77;;;;;;;25.59;44.42;101200.56;5077835;28;20194;-71
2021/06/27 10:21:57;;;;;;;4.40;4.00;;;;;;;25.89;42.88;101202.66;5095736;28;20205;-72
2021/06/27 10:24:23;;;;;;;2.80;2.37;;;;;;;26.48;40.75;101200.53;5060674;28;20223;-71
2021/06/27 10:26:48;;;;;;;5.30;2.60;;;;;;;25.78;42.47;101203.00;5077463;28;20215;-72
2021/06/27 10:29:14;;;;;;;2.53;2.33;;;;;;;25.20;43.20;101193.84;5060697;28;20174;-71
2021/06/27 10:31:40;;;;;;;5.73;3.90;;;;;;;24.57;44.19;101186.13;5077535;28;20662;-71
2021/06/27 10:34:05;;;;;;;2.30;1.97;;;;;;;24.91;41.50;101180.63;5077308;28;20234;-72
2021/06/27 10:36:36;;;;;;;4.40;2.93;;;;;;;24.97;42.13;101184.56;5077538;28;20182;-73
2021/06/27 10:39:08;;;;;;;3.60;3.00;;;;;;;25.14;43.18;101174.56;5077104;28;20174;-72
2021/06/27 10:42:00;;;;;;;4.33;3.00;;;;;;;24.30;43.09;101169.94;5077311;28;20657;-71
2021/06/27 10:44:28;;;;;;;3.97;2.60;;;;;;;25.14;42.22;101174.56;5073264;28;20190;-71
2021/06/27 10:46:55;;;;;;;3.03;2.73;;;;;;;25.74;41.14;101183.38;5077057;28;20178;-70
2021/06/27 10:49:30;;;;;;;3.50;2.80;;;;;;;25.40;42.00;101174.44;5077150;28;20170;-71
2021/06/27 10:52:00;;;;;;;2.67;2.23;;;;;;;25.85;40.65;101179.41;5095430;28;20285;-72
2021/06/27 10:54:27;;;;;;;2.70;2.50;;;;;;;25.97;41.08;101183.50;5078067;28;20185;-72
2021/06/27 10:57:01;;;;;;;1.80;1.70;;;;;;;24.26;41.59;101174.81;5096154;28;20274;-73
2021/06/27 10:59:38;;;;;;;2.50;2.20;;;;;;;23.79;44.39;101173.44;5097589;28;20527;-73
2021/06/27 11:02:17;;;;;;;7.90;2.23;;;;;;;24.60;42.85;101168.56;5076850;28;20604;-72
2021/06/27 11:04:43;;;;;;;3.70;2.90;;;;;;;26.08;40.04;101174.97;5077465;28;20158;-72
2021/06/27 11:07:31;;;;;;;3.10;2.80;;;;;;;28.36;35.71;101181.81;5076974;28;20235;-73
2021/06/27 11:10:21;;;;;;;2.67;2.20;;;;;;;28.33;34.65;101183.06;5076503;28;20192;-72
2021/06/27 11:12:59;;;;;;;3.37;3.03;;;;;;;27.23;37.66;101175.41;5094477;28;20251;-73
2021/06/27 11:15:24;;;;;;;3.40;3.10;;;;;;;24.18;45.21;101176.66;5094931;28;20166;-73
2021/06/27 11:17:53;;;;;;;3.67;2.67;;;;;;;24.06;46.33;101177.91;5059937;28;20593;-73